sensor_id;sensor_type;location;lat;lon;timestamp;pressure;altitude;pressure_sealevel;temperature;humidity
48216;BME280;34005;48.844;10.098;2023-02-20T00:01:51;97702.03;;;9.31;67.99
48216;BME280;34005;48.844;10.098;2023-02-20T00:04:21;97702.88;;;9.32;67.91
48216;BME280;34005;48.844;10.098;2023-02-20T00:06:52;97704.66;;;9.31;67.31
48216;BME280;34005;48.844;10.098;2023-02-20T00:09:20;97712.47;;;9.31;67.33
48216;BME280;34005;48.844;10.098;2023-02-20T00:11:49;97712.75;;;9.28;67.05
48216;BME280;34005;48.844;10.098;2023-02-20T00:14:19;97717.97;;;9.28;66.89
48216;BME280;34005;48.844;10.098;2023-02-20T00:16:47;97713.06;;;9.25;67.66
48216;BME280;34005;48.844;10.098;2023-02-20T00:19:16;97708.81;;;9.24;67.54
48216;BME280;34005;48.844;10.098;2023-02-20T00:21:46;97710.28;;;9.26;67.54
48216;BME280;34005;48.844;10.098;2023-02-20T00:24:16;97709.03;;;9.31;67.09
48216;BME280;34005;48.844;10.098;2023-02-20T00:26:46;97708.91;;;9.32;67.11
48216;BME280;34005;48.844;10.098;2023-02-20T00:29:15;97705.63;;;9.30;66.66
48216;BME280;34005;48.844;10.098;2023-02-20T00:31:49;97705.91;;;9.27;67.00
48216;BME280;34005;48.844;10.098;2023-02-20T00:34:18;97703.97;;;9.29;67.08
48216;BME280;34005;48.844;10.098;2023-02-20T00:36:52;97714.69;;;9.26;66.64
48216;BME280;34005;48.844;10.098;2023-02-20T00:39:24;97712.84;;;9.18;66.85
48216;BME280;34005;48.844;10.098;2023-02-20T00:41:59;97715.69;;;9.15;67.13
48216;BME280;34005;48.844;10.098;2023-02-20T00:44:31;97712.28;;;9.15;67.34
48216;BME280;34005;48.844;10.098;2023-02-20T00:46:59;97712.28;;;9.15;67.50
48216;BME280;34005;48.844;10.098;2023-02-20T00:49:27;97715.56;;;9.17;67.52
48216;BME280;34005;48.844;10.098;2023-02-20T00:51:57;97730.06;;;9.19;67.51
48216;BME280;34005;48.844;10.098;2023-02-20T00:54:25;97731.19;;;9.17;67.43
48216;BME280;34005;48.844;10.098;2023-02-20T00:56:53;97736.66;;;9.14;67.63
48216;BME280;34005;48.844;10.098;2023-02-20T00:59:24;97734.75;;;9.16;67.87
48216;BME280;34005;48.844;10.098;2023-02-20T01:01:55;97733.13;;;9.15;67.55
48216;BME280;34005;48.844;10.098;2023-02-20T01:04:25;97717.50;;;9.15;67.65
48216;BME280;34005;48.844;10.098;2023-02-20T01:06:54;97720.78;;;9.17;67.76
48216;BME280;34005;48.844;10.098;2023-02-20T01:09:24;97706.09;;;9.16;67.37
48216;BME280;34005;48.844;10.098;2023-02-20T01:11:54;97712.28;;;9.15;67.66
48216;BME280;34005;48.844;10.098;2023-02-20T01:14:22;97712.28;;;9.15;67.45
48216;BME280;34005;48.844;10.098;2023-02-20T01:16:53;97714.22;;;9.13;67.36
48216;BME280;34005;48.844;10.098;2023-02-20T01:19:23;97716.81;;;9.13;67.50
48216;BME280;34005;48.844;10.098;2023-02-20T01:21:53;97707.34;;;9.12;67.33
48216;BME280;34005;48.844;10.098;2023-02-20T01:24:40;97710.63;;;9.14;67.49
48216;BME280;34005;48.844;10.098;2023-02-20T01:27:18;97720.38;;;9.12;67.42
48216;BME280;34005;48.844;10.098;2023-02-20T01:29:53;97710.94;;;9.11;67.48
48216;BME280;34005;48.844;10.098;2023-02-20T01:32:25;97712.88;;;9.08;67.40
48216;BME280;34005;48.844;10.098;2023-02-20T01:34:53;97709.59;;;9.06;67.46
48216;BME280;34005;48.844;10.098;2023-02-20T01:37:24;97706.44;;;9.03;67.78
48216;BME280;34005;48.844;10.098;2023-02-20T01:40:13;97704.13;;;9.00;67.63
48216;BME280;34005;48.844;10.098;2023-02-20T01:42:47;97710.47;;;8.97;67.65
48216;BME280;34005;48.844;10.098;2023-02-20T01:45:35;97715.13;;;8.94;67.92
48216;BME280;34005;48.844;10.098;2023-02-20T01:48:21;97710.06;;;8.92;67.98
48216;BME280;34005;48.844;10.098;2023-02-20T01:51:03;97704.47;;;8.87;68.10
48216;BME280;34005;48.844;10.098;2023-02-20T01:53:45;97705.81;;;8.91;67.80
48216;BME280;34005;48.844;10.098;2023-02-20T01:56:33;97704.88;;;8.92;67.98
48216;BME280;34005;48.844;10.098;2023-02-20T01:59:10;97701.59;;;8.90;67.77
48216;BME280;34005;48.844;10.098;2023-02-20T02:01:51;97705.28;;;8.87;67.85
48216;BME280;34005;48.844;10.098;2023-02-20T02:04:31;97685.56;;;8.85;68.24
48216;BME280;34005;48.844;10.098;2023-02-20T02:10:00;97673.66;;;8.92;67.95
48216;BME280;34005;48.844;10.098;2023-02-20T02:12:45;97670.88;;;8.94;67.86
48216;BME280;34005;48.844;10.098;2023-02-20T02:15:17;97666.13;;;8.89;67.63
48216;BME280;34005;48.844;10.098;2023-02-20T02:18:06;97669.53;;;8.90;67.92
48216;BME280;34005;48.844;10.098;2023-02-20T02:55:42;97679.63;;;8.75;68.01
48216;BME280;34005;48.844;10.098;2023-02-20T02:58:13;97675.09;;;8.77;67.82
48216;BME280;34005;48.844;10.098;2023-02-20T03:00:56;97674.94;;;8.78;67.50
48216;BME280;34005;48.844;10.098;2023-02-20T03:03:38;97668.91;;;8.78;67.39
48216;BME280;34005;48.844;10.098;2023-02-20T03:06:10;97679.63;;;8.75;67.86
48216;BME280;34005;48.844;10.098;2023-02-20T03:08:42;97674.53;;;8.73;68.16
48216;BME280;34005;48.844;10.098;2023-02-20T03:11:14;97674.53;;;8.73;67.54
48216;BME280;34005;48.844;10.098;2023-02-20T03:13:47;97668.66;;;8.71;68.49
48216;BME280;34005;48.844;10.098;2023-02-20T03:16:39;97674.00;;;8.70;68.26
48216;BME280;34005;48.844;10.098;2023-02-20T03:19:09;97676.09;;;8.66;67.79
48216;BME280;34005;48.844;10.098;2023-02-20T03:21:42;97678.28;;;8.61;67.63
48216;BME280;34005;48.844;10.098;2023-02-20T03:24:12;97678.56;;;8.58;67.86
48216;BME280;34005;48.844;10.098;2023-02-20T03:26:42;97667.78;;;8.53;68.01
48216;BME280;34005;48.844;10.098;2023-02-20T03:29:15;97674.22;;;8.49;68.09
48216;BME280;34005;48.844;10.098;2023-02-20T03:31:47;97676.16;;;8.47;67.93
48216;BME280;34005;48.844;10.098;2023-02-20T03:34:37;97672.88;;;8.44;67.86
48216;BME280;34005;48.844;10.098;2023-02-20T03:37:25;97664.25;;;8.44;68.00
48216;BME280;34005;48.844;10.098;2023-02-20T03:40:15;97672.06;;;8.44;68.25
48216;BME280;34005;48.844;10.098;2023-02-20T03:43:07;97658.09;;;8.45;68.40
48216;BME280;34005;48.844;10.098;2023-02-20T03:45:50;97668.78;;;8.42;68.24
48216;BME280;34005;48.844;10.098;2023-02-20T03:48:21;97668.06;;;8.40;68.76
48216;BME280;34005;48.844;10.098;2023-02-20T03:50:52;97669.03;;;8.39;68.72
48216;BME280;34005;48.844;10.098;2023-02-20T03:53:20;97663.44;;;8.34;68.03
48216;BME280;34005;48.844;10.098;2023-02-20T03:55:49;97670.41;;;8.33;68.46
48216;BME280;34005;48.844;10.098;2023-02-20T03:58:22;97667.66;;;8.35;68.30
48216;BME280;34005;48.844;10.098;2023-02-20T04:00:52;97657.94;;;8.37;68.20
48216;BME280;34005;48.844;10.098;2023-02-20T04:03:25;97664.38;;;8.33;67.77
48216;BME280;34005;48.844;10.098;2023-02-20T04:05:56;97658.50;;;8.31;68.32
48216;BME280;34005;48.844;10.098;2023-02-20T04:08:27;97661.09;;;8.31;68.36
48216;BME280;34005;48.844;10.098;2023-02-20T04:11:02;97664.66;;;8.30;68.34
48216;BME280;34005;48.844;10.098;2023-02-20T04:13:33;97670.41;;;8.33;68.76
48216;BME280;34005;48.844;10.098;2023-02-20T04:16:01;97666.72;;;8.36;68.31
48216;BME280;34005;48.844;10.098;2023-02-20T04:18:30;97666.41;;;8.39;68.35
48216;BME280;34005;48.844;10.098;2023-02-20T04:20:59;97662.88;;;8.40;67.83
48216;BME280;34005;48.844;10.098;2023-02-20T04:23:32;97655.34;;;8.37;67.73
48216;BME280;34005;48.844;10.098;2023-02-20T04:26:04;97658.91;;;8.36;68.17
48216;BME280;34005;48.844;10.098;2023-02-20T04:28:35;97665.06;;;8.35;68.47
48216;BME280;34005;48.844;10.098;2023-02-20T04:31:03;97662.47;;;8.35;68.47
48216;BME280;34005;48.844;10.098;2023-02-20T04:33:31;97657.00;;;8.38;69.02
48216;BME280;34005;48.844;10.098;2023-02-20T04:35:59;97657.41;;;8.43;68.57
48216;BME280;34005;48.844;10.098;2023-02-20T04:38:27;97658.38;;;8.42;68.21
48216;BME280;34005;48.844;10.098;2023-02-20T04:40:55;97647.97;;;8.42;68.29
48216;BME280;34005;48.844;10.098;2023-02-20T04:43:22;97645.38;;;8.42;68.00
48216;BME280;34005;48.844;10.098;2023-02-20T04:45:51;97654.22;;;8.39;67.93
48216;BME280;34005;48.844;10.098;2023-02-20T04:48:18;97650.81;;;8.39;68.31
48216;BME280;34005;48.844;10.098;2023-02-20T04:50:46;97655.06;;;8.40;68.40
48216;BME280;34005;48.844;10.098;2023-02-20T04:53:13;97656.72;;;8.41;68.37
48216;BME280;34005;48.844;10.098;2023-02-20T04:55:41;97658.09;;;8.45;68.60
48216;BME280;34005;48.844;10.098;2023-02-20T04:58:09;97652.88;;;8.45;68.38
48216;BME280;34005;48.844;10.098;2023-02-20T05:00:36;97652.34;;;8.41;68.39
48216;BME280;34005;48.844;10.098;2023-02-20T05:03:05;97655.06;;;8.40;67.82
48216;BME280;34005;48.844;10.098;2023-02-20T05:05:33;97650.13;;;8.37;67.52
48216;BME280;34005;48.844;10.098;2023-02-20T05:08:02;97658.91;;;8.36;67.59
48216;BME280;34005;48.844;10.098;2023-02-20T05:10:31;97656.56;;;8.33;67.58
48216;BME280;34005;48.844;10.098;2023-02-20T05:13:00;97659.19;;;8.33;67.79
48216;BME280;34005;48.844;10.098;2023-02-20T05:15:29;97667.94;;;8.32;67.78
48216;BME280;34005;48.844;10.098;2023-02-20T05:17:57;97664.38;;;8.33;68.08
48216;BME280;34005;48.844;10.098;2023-02-20T05:20:26;97668.75;;;8.32;67.88
48216;BME280;34005;48.844;10.098;2023-02-20T05:23:08;97670.16;;;8.27;67.48
48216;BME280;34005;48.844;10.098;2023-02-20T05:25:36;97667.16;;;8.21;67.55
48216;BME280;34005;48.844;10.098;2023-02-20T05:28:03;97662.50;;;8.15;67.53
48216;BME280;34005;48.844;10.098;2023-02-20T05:30:31;97666.22;;;8.13;68.08
48216;BME280;34005;48.844;10.098;2023-02-20T05:32:58;97664.59;;;8.12;67.86
48216;BME280;34005;48.844;10.098;2023-02-20T05:35:27;97659.50;;;8.10;67.52
48216;BME280;34005;48.844;10.098;2023-02-20T05:37:55;97660.50;;;8.09;67.91
48216;BME280;34005;48.844;10.098;2023-02-20T05:40:22;97665.81;;;8.08;67.51
48216;BME280;34005;48.844;10.098;2023-02-20T05:42:50;97660.06;;;8.04;67.71
48216;BME280;34005;48.844;10.098;2023-02-20T05:45:17;97664.44;;;8.03;67.97
48216;BME280;34005;48.844;10.098;2023-02-20T05:47:45;97657.47;;;8.04;67.36
48216;BME280;34005;48.844;10.098;2023-02-20T05:50:12;97651.34;;;8.05;68.10
48216;BME280;34005;48.844;10.098;2023-02-20T05:52:41;97654.88;;;8.04;68.21
48216;BME280;34005;48.844;10.098;2023-02-20T05:55:10;97645.28;;;8.04;68.26
48216;BME280;34005;48.844;10.098;2023-02-20T05:57:37;97653.75;;;8.07;68.18
48216;BME280;34005;48.844;10.098;2023-02-20T06:00:06;97666.63;;;8.08;67.66
48216;BME280;34005;48.844;10.098;2023-02-20T06:02:33;97666.25;;;8.03;67.75
48216;BME280;34005;48.844;10.098;2023-02-20T06:05:01;97669.78;;;8.02;68.04
48216;BME280;34005;48.844;10.098;2023-02-20T06:07:30;97666.38;;;8.01;67.75
48216;BME280;34005;48.844;10.098;2023-02-20T06:09:59;97678.69;;;7.99;67.59
48216;BME280;34005;48.844;10.098;2023-02-20T06:12:27;97675.53;;;7.96;67.35
48216;BME280;34005;48.844;10.098;2023-02-20T06:14:54;97677.31;;;7.95;67.89
48216;BME280;34005;48.844;10.098;2023-02-20T06:17:22;97684.16;;;7.96;68.27
48216;BME280;34005;48.844;10.098;2023-02-20T06:19:50;97684.97;;;7.97;67.82
48216;BME280;34005;48.844;10.098;2023-02-20T06:22:18;97683.31;;;7.96;67.91
48216;BME280;34005;48.844;10.098;2023-02-20T06:24:46;97690.16;;;7.97;67.78
48216;BME280;34005;48.844;10.098;2023-02-20T06:27:16;97695.38;;;7.97;68.08
48216;BME280;34005;48.844;10.098;2023-02-20T06:29:45;97697.28;;;7.95;67.25
48216;BME280;34005;48.844;10.098;2023-02-20T06:32:14;97691.28;;;7.94;67.48
48216;BME280;34005;48.844;10.098;2023-02-20T06:34:42;97700.56;;;7.97;67.35
48216;BME280;34005;48.844;10.098;2023-02-20T06:37:10;97693.72;;;7.96;67.42
48216;BME280;34005;48.844;10.098;2023-02-20T06:39:38;97695.66;;;7.94;67.19
48216;BME280;34005;48.844;10.098;2023-02-20T06:42:08;97690.31;;;7.95;67.72
48216;BME280;34005;48.844;10.098;2023-02-20T06:44:37;97697.97;;;7.97;66.96
48216;BME280;34005;48.844;10.098;2023-02-20T06:47:04;97701.38;;;7.97;67.67
48216;BME280;34005;48.844;10.098;2023-02-20T06:49:34;97700.56;;;7.97;67.10
48216;BME280;34005;48.844;10.098;2023-02-20T06:52:03;97688.53;;;7.96;66.78
48216;BME280;34005;48.844;10.098;2023-02-20T06:54:30;97691.41;;;7.93;67.38
48216;BME280;34005;48.844;10.098;2023-02-20T06:56:59;97696.06;;;7.99;67.48
48216;BME280;34005;48.844;10.098;2023-02-20T06:59:27;97699.72;;;8.06;67.59
48216;BME280;34005;48.844;10.098;2023-02-20T07:01:56;97701.91;;;8.11;67.33
48216;BME280;34005;48.844;10.098;2023-02-20T07:04:25;97709.28;;;8.15;66.84
48216;BME280;34005;48.844;10.098;2023-02-20T07:06:53;97709.41;;;8.23;67.34
48216;BME280;34005;48.844;10.098;2023-02-20T07:09:21;97719.66;;;8.35;67.51
48216;BME280;34005;48.844;10.098;2023-02-20T07:11:51;97726.09;;;8.50;66.07
48216;BME280;34005;48.844;10.098;2023-02-20T07:14:20;97721.00;;;8.58;65.62
48216;BME280;34005;48.844;10.098;2023-02-20T07:16:48;97727.44;;;8.64;65.24
48216;BME280;34005;48.844;10.098;2023-02-20T07:19:17;97727.38;;;8.74;65.81
48216;BME280;34005;48.844;10.098;2023-02-20T07:21:45;97731.03;;;8.91;65.97
48216;BME280;34005;48.844;10.098;2023-02-20T07:24:12;97733.31;;;9.03;65.24
48216;BME280;34005;48.844;10.098;2023-02-20T07:26:40;97729.53;;;9.16;64.18
48216;BME280;34005;48.844;10.098;2023-02-20T07:29:08;97724.91;;;9.37;63.13
48216;BME280;34005;48.844;10.098;2023-02-20T07:31:36;97726.78;;;9.63;63.70
48216;BME280;34005;48.844;10.098;2023-02-20T07:34:04;97726.66;;;10.44;61.22
48216;BME280;34005;48.844;10.098;2023-02-20T07:36:33;97729.84;;;11.25;58.11
48216;BME280;34005;48.844;10.098;2023-02-20T07:39:02;97731.56;;;11.50;57.33
48216;BME280;34005;48.844;10.098;2023-02-20T07:41:32;97731.66;;;12.24;56.26
48216;BME280;34005;48.844;10.098;2023-02-20T07:44:01;97733.28;;;12.58;53.87
48216;BME280;34005;48.844;10.098;2023-02-20T07:46:28;97733.97;;;12.35;54.96
48216;BME280;34005;48.844;10.098;2023-02-20T07:48:59;97715.81;;;12.18;54.47
48216;BME280;34005;48.844;10.098;2023-02-20T07:51:27;97711.25;;;12.03;55.33
48216;BME280;34005;48.844;10.098;2023-02-20T07:53:56;97695.03;;;11.91;55.42
48216;BME280;34005;48.844;10.098;2023-02-20T07:56:23;97696.34;;;11.79;55.72
48216;BME280;34005;48.844;10.098;2023-02-20T07:58:51;97692.38;;;11.67;56.57
48216;BME280;34005;48.844;10.098;2023-02-20T08:01:19;97701.72;;;11.61;56.64
48216;BME280;34005;48.844;10.098;2023-02-20T08:03:47;97699.94;;;11.70;56.47
48216;BME280;34005;48.844;10.098;2023-02-20T08:06:15;97698.97;;;12.20;54.59
48216;BME280;34005;48.844;10.098;2023-02-20T08:08:46;97716.25;;;12.62;52.78
48216;BME280;34005;48.844;10.098;2023-02-20T08:11:15;97711.09;;;12.93;52.75
48216;BME280;34005;48.844;10.098;2023-02-20T08:13:44;97703.69;;;14.14;50.23
48216;BME280;34005;48.844;10.098;2023-02-20T08:16:11;97707.66;;;14.62;49.01
48216;BME280;34005;48.844;10.098;2023-02-20T08:18:39;97697.25;;;14.84;48.61
48216;BME280;34005;48.844;10.098;2023-02-20T08:21:07;97683.03;;;14.93;47.49
48216;BME280;34005;48.844;10.098;2023-02-20T08:23:35;97680.78;;;14.75;48.11
48216;BME280;34005;48.844;10.098;2023-02-20T08:26:02;97691.84;;;14.86;47.46
48216;BME280;34005;48.844;10.098;2023-02-20T08:28:31;97681.78;;;15.77;46.01
48216;BME280;34005;48.844;10.098;2023-02-20T08:30:59;97681.34;;;16.79;43.81
48216;BME280;34005;48.844;10.098;2023-02-20T08:33:27;97682.84;;;16.95;42.73
48216;BME280;34005;48.844;10.098;2023-02-20T08:35:55;97682.88;;;16.67;43.05
48216;BME280;34005;48.844;10.098;2023-02-20T08:38:26;97682.09;;;16.73;42.94
48216;BME280;34005;48.844;10.098;2023-02-20T08:40:54;97671.25;;;16.89;42.99
48216;BME280;34005;48.844;10.098;2023-02-20T08:43:22;97663.19;;;16.63;42.91
48216;BME280;34005;48.844;10.098;2023-02-20T08:45:54;97663.16;;;16.28;43.49
48216;BME280;34005;48.844;10.098;2023-02-20T08:48:22;97654.09;;;16.09;43.47
48216;BME280;34005;48.844;10.098;2023-02-20T08:50:50;97649.88;;;15.86;43.96
48216;BME280;34005;48.844;10.098;2023-02-20T08:53:18;97666.38;;;15.59;44.19
48216;BME280;34005;48.844;10.098;2023-02-20T08:55:46;97663.31;;;15.34;44.06
48216;BME280;34005;48.844;10.098;2023-02-20T08:58:17;97666.03;;;15.25;44.18
48216;BME280;34005;48.844;10.098;2023-02-20T09:00:45;97663.69;;;15.31;44.54
48216;BME280;34005;48.844;10.098;2023-02-20T09:03:14;97654.56;;;15.48;44.33
48216;BME280;34005;48.844;10.098;2023-02-20T09:05:42;97650.41;;;15.75;43.60
48216;BME280;34005;48.844;10.098;2023-02-20T09:08:10;97637.50;;;16.09;43.17
48216;BME280;34005;48.844;10.098;2023-02-20T09:10:38;97634.53;;;16.46;42.48
48216;BME280;34005;48.844;10.098;2023-02-20T09:13:05;97642.16;;;16.69;42.22
48216;BME280;34005;48.844;10.098;2023-02-20T09:15:33;97637.59;;;16.85;41.59
48216;BME280;34005;48.844;10.098;2023-02-20T09:18:05;97636.78;;;16.84;41.48
48216;BME280;34005;48.844;10.098;2023-02-20T09:20:36;97640.09;;;17.00;41.05
48216;BME280;34005;48.844;10.098;2023-02-20T09:23:05;97642.38;;;17.23;40.64
48216;BME280;34005;48.844;10.098;2023-02-20T09:25:33;97640.81;;;17.35;40.79
48216;BME280;34005;48.844;10.098;2023-02-20T09:28:01;97636.34;;;17.49;40.90
48216;BME280;34005;48.844;10.098;2023-02-20T09:30:29;97629.91;;;17.65;39.66
48216;BME280;34005;48.844;10.098;2023-02-20T09:32:56;97630.53;;;17.80;39.29
48216;BME280;34005;48.844;10.098;2023-02-20T09:35:26;97626.69;;;17.96;38.47
48216;BME280;34005;48.844;10.098;2023-02-20T09:37:56;97630.34;;;18.15;39.05
48216;BME280;34005;48.844;10.098;2023-02-20T09:40:25;97631.31;;;18.41;39.00
48216;BME280;34005;48.844;10.098;2023-02-20T09:43:08;97635.13;;;18.58;37.32
48216;BME280;34005;48.844;10.098;2023-02-20T09:45:42;97633.09;;;18.67;37.29
48216;BME280;34005;48.844;10.098;2023-02-20T09:48:23;97625.53;;;18.77;35.67
48216;BME280;34005;48.844;10.098;2023-02-20T09:50:56;97623.13;;;18.62;36.06
48216;BME280;34005;48.844;10.098;2023-02-20T09:53:29;97619.25;;;18.65;36.93
48216;BME280;34005;48.844;10.098;2023-02-20T09:56:00;97623.06;;;18.89;36.43
48216;BME280;34005;48.844;10.098;2023-02-20T09:58:39;97606.75;;;19.05;35.89
48216;BME280;34005;48.844;10.098;2023-02-20T10:01:10;97607.41;;;18.94;35.49
48216;BME280;34005;48.844;10.098;2023-02-20T10:03:51;97602.00;;;18.56;36.00
48216;BME280;34005;48.844;10.098;2023-02-20T10:06:21;97604.66;;;18.56;36.85
48216;BME280;34005;48.844;10.098;2023-02-20T10:08:52;97601.81;;;18.57;36.61
48216;BME280;34005;48.844;10.098;2023-02-20T10:11:47;97602.66;;;18.44;36.58
48216;BME280;34005;48.844;10.098;2023-02-20T10:14:33;97599.00;;;18.45;36.66
48216;BME280;34005;48.844;10.098;2023-02-20T10:17:14;97601.06;;;18.43;35.88
48216;BME280;34005;48.844;10.098;2023-02-20T10:19:49;97583.59;;;18.29;36.45
48216;BME280;34005;48.844;10.098;2023-02-20T10:22:20;97594.94;;;18.36;37.45
48216;BME280;34005;48.844;10.098;2023-02-20T10:25:01;97588.19;;;18.60;36.93
48216;BME280;34005;48.844;10.098;2023-02-20T10:27:40;97582.78;;;19.00;36.53
48216;BME280;34005;48.844;10.098;2023-02-20T10:30:11;97589.47;;;19.34;35.43
48216;BME280;34005;48.844;10.098;2023-02-20T10:32:43;97585.19;;;19.65;34.19
48216;BME280;34005;48.844;10.098;2023-02-20T10:35:17;97589.72;;;19.90;34.76
48216;BME280;34005;48.844;10.098;2023-02-20T10:37:52;97593.66;;;20.24;34.60
48216;BME280;34005;48.844;10.098;2023-02-20T10:40:26;97596.41;;;20.54;33.05
48216;BME280;34005;48.844;10.098;2023-02-20T10:43:01;97593.34;;;20.76;32.81
48216;BME280;34005;48.844;10.098;2023-02-20T10:45:38;97588.50;;;21.03;31.81
48216;BME280;34005;48.844;10.098;2023-02-20T10:48:11;97583.56;;;21.37;32.37
48216;BME280;34005;48.844;10.098;2023-02-20T10:50:45;97581.13;;;21.66;31.77
48216;BME280;34005;48.844;10.098;2023-02-20T10:53:19;97572.00;;;21.97;31.57
48216;BME280;34005;48.844;10.098;2023-02-20T10:55:59;97574.81;;;22.26;30.46
48216;BME280;34005;48.844;10.098;2023-02-20T10:58:33;97571.91;;;22.51;30.80
48216;BME280;34005;48.844;10.098;2023-02-20T11:01:04;97576.75;;;22.82;29.92
48216;BME280;34005;48.844;10.098;2023-02-20T11:03:40;97571.31;;;23.01;29.13
48216;BME280;34005;48.844;10.098;2023-02-20T11:06:12;97560.38;;;23.14;29.50
48216;BME280;34005;48.844;10.098;2023-02-20T11:08:43;97561.22;;;23.32;29.30
48216;BME280;34005;48.844;10.098;2023-02-20T11:11:24;97548.97;;;23.48;28.03
48216;BME280;34005;48.844;10.098;2023-02-20T11:13:52;97550.72;;;23.59;28.92
48216;BME280;34005;48.844;10.098;2023-02-20T11:16:26;97544.16;;;23.78;28.10
48216;BME280;34005;48.844;10.098;2023-02-20T11:19:11;97545.81;;;23.68;28.25
48216;BME280;34005;48.844;10.098;2023-02-20T11:21:45;97537.50;;;23.81;27.90
48216;BME280;34005;48.844;10.098;2023-02-20T11:24:26;97534.19;;;24.08;27.54
48216;BME280;34005;48.844;10.098;2023-02-20T11:27:01;97540.03;;;24.26;27.07
48216;BME280;34005;48.844;10.098;2023-02-20T11:29:34;97543.38;;;24.39;27.21
48216;BME280;34005;48.844;10.098;2023-02-20T11:32:16;97535.03;;;24.52;27.08
48216;BME280;34005;48.844;10.098;2023-02-20T11:34:45;97521.28;;;24.60;27.25
48216;BME280;34005;48.844;10.098;2023-02-20T11:37:13;97530.22;;;24.71;27.06
48216;BME280;34005;48.844;10.098;2023-02-20T11:39:45;97515.19;;;24.92;26.54
48216;BME280;34005;48.844;10.098;2023-02-20T11:42:17;97514.31;;;25.08;26.30
48216;BME280;34005;48.844;10.098;2023-02-20T11:45:11;97509.63;;;25.21;26.80
48216;BME280;34005;48.844;10.098;2023-02-20T11:47:39;97510.38;;;25.43;26.37
48216;BME280;34005;48.844;10.098;2023-02-20T11:50:15;97506.19;;;25.58;25.78
48216;BME280;34005;48.844;10.098;2023-02-20T11:52:57;97491.28;;;25.67;25.24
48216;BME280;34005;48.844;10.098;2023-02-20T11:55:26;97485.13;;;25.66;25.61
48216;BME280;34005;48.844;10.098;2023-02-20T11:57:56;97483.34;;;25.77;26.06
48216;BME280;34005;48.844;10.098;2023-02-20T12:00:25;97483.88;;;25.74;25.10
48216;BME280;34005;48.844;10.098;2023-02-20T12:02:54;97477.91;;;25.67;24.92
48216;BME280;34005;48.844;10.098;2023-02-20T12:05:36;97475.78;;;25.69;25.00
48216;BME280;34005;48.844;10.098;2023-02-20T12:08:22;97472.16;;;25.80;25.07
48216;BME280;34005;48.844;10.098;2023-02-20T12:10:55;97467.97;;;25.95;24.77
48216;BME280;34005;48.844;10.098;2023-02-20T12:13:28;97456.53;;;26.09;24.66
48216;BME280;34005;48.844;10.098;2023-02-20T12:16:17;97453.63;;;26.16;24.02
48216;BME280;34005;48.844;10.098;2023-02-20T12:18:53;97453.38;;;26.18;24.20
48216;BME280;34005;48.844;10.098;2023-02-20T12:21:29;97441.84;;;26.12;24.13
48216;BME280;34005;48.844;10.098;2023-02-20T12:26:52;97444.09;;;25.83;25.04
48216;BME280;34005;48.844;10.098;2023-02-20T12:29:45;97440.94;;;25.48;24.49
48216;BME280;34005;48.844;10.098;2023-02-20T12:32:24;97427.47;;;25.01;25.19
48216;BME280;34005;48.844;10.098;2023-02-20T12:35:05;97441.75;;;24.57;25.49
48216;BME280;34005;48.844;10.098;2023-02-20T12:37:48;97428.50;;;24.18;26.36
48216;BME280;34005;48.844;10.098;2023-02-20T12:40:33;97410.75;;;23.85;26.42
48216;BME280;34005;48.844;10.098;2023-02-20T12:43:14;97410.16;;;23.61;26.96
48216;BME280;34005;48.844;10.098;2023-02-20T12:45:48;97407.03;;;23.30;27.38
48216;BME280;34005;48.844;10.098;2023-02-20T12:48:27;97401.66;;;23.08;26.77
48216;BME280;34005;48.844;10.098;2023-02-20T12:51:07;97396.72;;;22.83;26.90
48216;BME280;34005;48.844;10.098;2023-02-20T12:53:57;97393.91;;;22.44;27.36
48216;BME280;34005;48.844;10.098;2023-02-20T12:56:39;97386.53;;;21.94;27.74
48216;BME280;34005;48.844;10.098;2023-02-20T12:59:20;97383.84;;;21.65;28.72
48216;BME280;34005;48.844;10.098;2023-02-20T13:01:51;97385.69;;;21.53;28.87
48216;BME280;34005;48.844;10.098;2023-02-20T13:04:24;97374.94;;;21.36;29.17
48216;BME280;34005;48.844;10.098;2023-02-20T13:07:01;97373.91;;;21.13;29.58
48216;BME280;34005;48.844;10.098;2023-02-20T13:09:32;97375.84;;;20.94;29.72
48216;BME280;34005;48.844;10.098;2023-02-20T13:12:05;97366.13;;;20.76;30.00
48216;BME280;34005;48.844;10.098;2023-02-20T13:14:45;97373.38;;;20.57;30.17
48216;BME280;34005;48.844;10.098;2023-02-20T13:17:25;97361.88;;;20.45;30.96
48216;BME280;34005;48.844;10.098;2023-02-20T13:19:59;97359.56;;;20.37;30.71
48216;BME280;34005;48.844;10.098;2023-02-20T13:22:31;97348.84;;;20.32;30.91
48216;BME280;34005;48.844;10.098;2023-02-20T13:28:00;97338.06;;;20.27;31.46
48216;BME280;34005;48.844;10.098;2023-02-20T13:30:29;97339.00;;;20.21;31.18
48216;BME280;34005;48.844;10.098;2023-02-20T13:33:12;97329.97;;;20.10;31.13
48216;BME280;34005;48.844;10.098;2023-02-20T13:35:49;97329.69;;;20.00;31.20
48216;BME280;34005;48.844;10.098;2023-02-20T13:38:19;97325.66;;;19.97;31.43
48216;BME280;34005;48.844;10.098;2023-02-20T13:41:02;97327.00;;;19.88;31.98
48216;BME280;34005;48.844;10.098;2023-02-20T13:43:31;97321.44;;;19.78;31.67
48216;BME280;34005;48.844;10.098;2023-02-20T13:46:16;97317.00;;;19.71;31.84
48216;BME280;34005;48.844;10.098;2023-02-20T13:48:50;97319.13;;;19.63;31.65
48216;BME280;34005;48.844;10.098;2023-02-20T13:51:33;97315.53;;;19.57;32.31
48216;BME280;34005;48.844;10.098;2023-02-20T13:54:16;97302.53;;;19.55;32.26
48216;BME280;34005;48.844;10.098;2023-02-20T13:56:51;97298.50;;;19.53;32.39
48216;BME280;34005;48.844;10.098;2023-02-20T13:59:21;97297.91;;;19.51;32.23
48216;BME280;34005;48.844;10.098;2023-02-20T14:01:54;97295.25;;;19.51;31.76
48216;BME280;34005;48.844;10.098;2023-02-20T14:04:23;97278.19;;;19.47;32.00
48216;BME280;34005;48.844;10.098;2023-02-20T14:06:51;97290.31;;;19.36;31.87